sensor_id;sensor_type;location;lat;lon;timestamp;pressure;altitude;pressure_sealevel;temperature;humidity
7532;BME280;3807;49.030;8.714;2023-07-28T00:02:08;98572.94;;;21.30;63.37
7532;BME280;3807;49.030;8.714;2023-07-28T00:04:37;98574.59;;;21.40;63.09
7532;BME280;3807;49.030;8.714;2023-07-28T00:07:03;98579.62;;;21.32;63.33
7532;BME280;3807;49.030;8.714;2023-07-28T00:09:29;98574.31;;;21.24;63.51
7532;BME280;3807;49.030;8.714;2023-07-28T00:11:59;98580.72;;;21.20;63.77
7532;BME280;3807;49.030;8.714;2023-07-28T00:14:25;98572.97;;;21.20;63.68
7532;BME280;3807;49.030;8.714;2023-07-28T00:16:54;98572.12;;;21.29;63.33
7532;BME280;3807;49.030;8.714;2023-07-28T00:19:20;98571.31;;;21.19;63.68
7532;BME280;3807;49.030;8.714;2023-07-28T00:21:49;98561.09;;;21.17;63.74
7532;BME280;3807;49.030;8.714;2023-07-28T00:24:15;98563.53;;;21.19;63.65
7532;BME280;3807;49.030;8.714;2023-07-28T00:26:40;98567.09;;;21.18;63.72
7532;BME280;3807;49.030;8.714;2023-07-28T00:29:06;98562.72;;;21.18;63.61
7532;BME280;3807;49.030;8.714;2023-07-28T00:31:32;98560.00;;;21.20;63.52
7532;BME280;3807;49.030;8.714;2023-07-28T00:33:58;98556.47;;;21.11;63.79
7532;BME280;3807;49.030;8.714;2023-07-28T00:36:23;98559.75;;;21.13;63.78
7532;BME280;3807;49.030;8.714;2023-07-28T00:38:48;98549.62;;;21.30;63.21
7532;BME280;3807;49.030;8.714;2023-07-28T00:41:14;98551.69;;;21.16;63.61
7532;BME280;3807;49.030;8.714;2023-07-28T00:43:39;98552.37;;;21.09;63.93
7532;BME280;3807;49.030;8.714;2023-07-28T00:46:05;98555.91;;;21.08;63.88
7532;BME280;3807;49.030;8.714;2023-07-28T00:48:30;98549.09;;;21.07;63.89
7532;BME280;3807;49.030;8.714;2023-07-28T00:50:56;98556.03;;;21.16;63.63
7532;BME280;3807;49.030;8.714;2023-07-28T00:53:23;98551.81;;;21.05;63.86
7532;BME280;3807;49.030;8.714;2023-07-28T00:55:49;98552.50;;;21.17;63.63
7532;BME280;3807;49.030;8.714;2023-07-28T00:58:14;98550.75;;;21.08;63.88
7532;BME280;3807;49.030;8.714;2023-07-28T01:00:39;98547.88;;;21.11;63.82
7532;BME280;3807;49.030;8.714;2023-07-28T01:03:05;98548.16;;;21.17;63.58
7532;BME280;3807;49.030;8.714;2023-07-28T01:08:11;98545.56;;;21.08;63.82
7532;BME280;3807;49.030;8.714;2023-07-28T01:10:42;98547.75;;;21.03;63.99
7532;BME280;3807;49.030;8.714;2023-07-28T01:13:08;98550.72;;;20.98;64.21
7532;BME280;3807;49.030;8.714;2023-07-28T01:15:33;98560.28;;;20.98;64.24
7532;BME280;3807;49.030;8.714;2023-07-28T01:17:59;98560.00;;;21.01;64.16
7532;BME280;3807;49.030;8.714;2023-07-28T01:20:25;98562.59;;;21.01;64.12
7532;BME280;3807;49.030;8.714;2023-07-28T01:23:13;98561.91;;;20.99;64.21
7532;BME280;3807;49.030;8.714;2023-07-28T01:25:48;98565.59;;;20.96;64.29
7532;BME280;3807;49.030;8.714;2023-07-28T01:28:16;98566.53;;;21.05;64.16
7532;BME280;3807;49.030;8.714;2023-07-28T01:30:42;98562.59;;;21.01;64.31
7532;BME280;3807;49.030;8.714;2023-07-28T01:33:08;98562.59;;;20.91;64.54
7532;BME280;3807;49.030;8.714;2023-07-28T01:35:35;98565.59;;;20.96;64.38
7532;BME280;3807;49.030;8.714;2023-07-28T01:38:01;98565.06;;;20.92;64.67
7532;BME280;3807;49.030;8.714;2023-07-28T01:40:26;98558.38;;;20.90;64.65
7532;BME280;3807;49.030;8.714;2023-07-28T01:42:51;98561.91;;;20.89;64.60
7532;BME280;3807;49.030;8.714;2023-07-28T01:45:17;98558.22;;;20.91;64.48
7532;BME280;3807;49.030;8.714;2023-07-28T01:47:42;98565.84;;;20.83;64.63
7532;BME280;3807;49.030;8.714;2023-07-28T01:50:07;98565.59;;;20.86;64.48
7532;BME280;3807;49.030;8.714;2023-07-28T01:52:33;98561.50;;;20.84;64.67
7532;BME280;3807;49.030;8.714;2023-07-28T01:54:58;98555.09;;;20.88;64.54
7532;BME280;3807;49.030;8.714;2023-07-28T01:57:23;98554.28;;;20.87;64.53
7532;BME280;3807;49.030;8.714;2023-07-28T01:59:52;98556.47;;;20.82;64.65
7532;BME280;3807;49.030;8.714;2023-07-28T02:02:18;98548.25;;;20.77;64.81
7532;BME280;3807;49.030;8.714;2023-07-28T02:04:43;98548.28;;;20.87;64.56
7532;BME280;3807;49.030;8.714;2023-07-28T02:07:08;98548.53;;;20.84;64.52
7532;BME280;3807;49.030;8.714;2023-07-28T02:09:34;98551.69;;;20.87;64.41
7532;BME280;3807;49.030;8.714;2023-07-28T02:11:59;98541.75;;;20.83;64.49
7532;BME280;3807;49.030;8.714;2023-07-28T02:14:24;98559.97;;;20.81;64.70
7532;BME280;3807;49.030;8.714;2023-07-28T02:16:50;98550.84;;;20.77;64.71
7532;BME280;3807;49.030;8.714;2023-07-28T02:19:15;98566.00;;;20.82;64.57
7532;BME280;3807;49.030;8.714;2023-07-28T02:21:40;98561.09;;;20.79;64.69
7532;BME280;3807;49.030;8.714;2023-07-28T02:24:06;98556.19;;;20.76;64.72
7532;BME280;3807;49.030;8.714;2023-07-28T02:26:31;98558.06;;;20.74;64.76
7532;BME280;3807;49.030;8.714;2023-07-28T02:28:56;98558.75;;;20.76;64.75
7532;BME280;3807;49.030;8.714;2023-07-28T02:31:21;98563.78;;;20.77;64.78
7532;BME280;3807;49.030;8.714;2023-07-28T02:33:47;98569.50;;;20.71;64.87
7532;BME280;3807;49.030;8.714;2023-07-28T02:36:12;98574.44;;;20.84;64.58
7532;BME280;3807;49.030;8.714;2023-07-28T02:38:37;98571.03;;;20.83;64.59
7532;BME280;3807;49.030;8.714;2023-07-28T02:41:03;98569.50;;;20.81;64.72
7532;BME280;3807;49.030;8.714;2023-07-28T02:43:29;98581.34;;;20.74;65.07
7532;BME280;3807;49.030;8.714;2023-07-28T02:45:55;98577.84;;;20.75;65.12
7532;BME280;3807;49.030;8.714;2023-07-28T02:48:21;98569.94;;;20.76;65.09
7532;BME280;3807;49.030;8.714;2023-07-28T02:50:47;98568.97;;;20.77;65.09
7532;BME280;3807;49.030;8.714;2023-07-28T02:53:13;98572.00;;;20.82;64.80
7532;BME280;3807;49.030;8.714;2023-07-28T02:55:46;98578.91;;;20.72;65.23
7532;BME280;3807;49.030;8.714;2023-07-28T02:58:12;98578.91;;;20.72;65.25
7532;BME280;3807;49.030;8.714;2023-07-28T03:00:42;98573.88;;;20.80;64.91
7532;BME280;3807;49.030;8.714;2023-07-28T03:03:08;98582.72;;;20.68;65.30
7532;BME280;3807;49.030;8.714;2023-07-28T03:05:36;98593.34;;;20.65;65.50
7532;BME280;3807;49.030;8.714;2023-07-28T03:08:01;98594.00;;;20.67;65.35
7532;BME280;3807;49.030;8.714;2023-07-28T03:10:27;98593.88;;;20.68;65.29
7532;BME280;3807;49.030;8.714;2023-07-28T03:12:52;98610.47;;;20.56;65.80
7532;BME280;3807;49.030;8.714;2023-07-28T03:15:17;98602.19;;;20.62;65.54
7532;BME280;3807;49.030;8.714;2023-07-28T03:17:42;98596.03;;;20.63;65.41
7532;BME280;3807;49.030;8.714;2023-07-28T03:20:08;98598.91;;;20.60;65.42
7532;BME280;3807;49.030;8.714;2023-07-28T03:22:34;98605.03;;;20.59;65.36
7532;BME280;3807;49.030;8.714;2023-07-28T03:24:59;98612.13;;;20.57;65.37
7532;BME280;3807;49.030;8.714;2023-07-28T03:27:24;98607.31;;;20.53;65.50
7532;BME280;3807;49.030;8.714;2023-07-28T03:29:50;98617.56;;;20.54;65.77
7532;BME280;3807;49.030;8.714;2023-07-28T03:32:16;98617.22;;;20.48;66.01
7532;BME280;3807;49.030;8.714;2023-07-28T03:34:41;98620.41;;;20.51;65.92
7532;BME280;3807;49.030;8.714;2023-07-28T03:37:06;98608.50;;;20.49;65.77
7532;BME280;3807;49.030;8.714;2023-07-28T03:39:32;98611.09;;;20.49;66.10
7532;BME280;3807;49.030;8.714;2023-07-28T03:41:57;98609.09;;;20.52;65.54
7532;BME280;3807;49.030;8.714;2023-07-28T03:44:23;98608.13;;;20.53;65.50
7532;BME280;3807;49.030;8.714;2023-07-28T03:46:48;98613.19;;;20.55;65.45
7532;BME280;3807;49.030;8.714;2023-07-28T03:49:14;98609.09;;;20.52;65.68
7532;BME280;3807;49.030;8.714;2023-07-28T03:51:39;98611.81;;;20.60;65.30
7532;BME280;3807;49.030;8.714;2023-07-28T03:54:04;98606.09;;;20.57;65.46
7532;BME280;3807;49.030;8.714;2023-07-28T03:56:30;98606.09;;;20.57;65.38
7532;BME280;3807;49.030;8.714;2023-07-28T03:58:55;98603.50;;;20.57;65.35
7532;BME280;3807;49.030;8.714;2023-07-28T04:01:20;98598.63;;;20.54;65.46
7532;BME280;3807;49.030;8.714;2023-07-28T04:03:47;98601.72;;;20.48;65.61
7532;BME280;3807;49.030;8.714;2023-07-28T04:06:13;98605.44;;;20.55;65.68
7532;BME280;3807;49.030;8.714;2023-07-28T04:08:41;98606.19;;;20.45;66.23
7532;BME280;3807;49.030;8.714;2023-07-28T04:11:07;98595.97;;;20.44;66.20
7532;BME280;3807;49.030;8.714;2023-07-28T04:13:35;98603.03;;;20.42;65.87
7532;BME280;3807;49.030;8.714;2023-07-28T04:16:01;98606.19;;;20.45;65.83
7532;BME280;3807;49.030;8.714;2023-07-28T04:18:27;98611.88;;;20.39;65.95
7532;BME280;3807;49.030;8.714;2023-07-28T04:20:52;98611.34;;;20.45;65.72
7532;BME280;3807;49.030;8.714;2023-07-28T04:23:18;98615.09;;;20.53;65.41
7532;BME280;3807;49.030;8.714;2023-07-28T04:25:43;98610.12;;;20.50;65.86
7532;BME280;3807;49.030;8.714;2023-07-28T04:28:09;98620.41;;;20.51;65.85
7532;BME280;3807;49.030;8.714;2023-07-28T04:30:34;98618.28;;;20.45;65.78
7532;BME280;3807;49.030;8.714;2023-07-28T04:33:00;98615.66;;;20.35;66.01
7532;BME280;3807;49.030;8.714;2023-07-28T04:35:25;98624.13;;;20.37;66.00
7532;BME280;3807;49.030;8.714;2023-07-28T04:37:50;98616.38;;;20.37;66.43
7532;BME280;3807;49.030;8.714;2023-07-28T04:40:16;98627.56;;;20.48;65.88
7532;BME280;3807;49.030;8.714;2023-07-28T04:42:41;98627.13;;;20.42;65.97
7532;BME280;3807;49.030;8.714;2023-07-28T04:45:07;98623.88;;;20.40;66.03
7532;BME280;3807;49.030;8.714;2023-07-28T04:47:33;98625.75;;;20.38;66.14
7532;BME280;3807;49.030;8.714;2023-07-28T04:49:58;98631.44;;;20.32;66.52
7532;BME280;3807;49.030;8.714;2023-07-28T04:52:23;98633.41;;;20.40;66.24
7532;BME280;3807;49.030;8.714;2023-07-28T04:54:49;98628.22;;;20.40;66.18
7532;BME280;3807;49.030;8.714;2023-07-28T04:57:14;98626.00;;;20.35;66.27
7532;BME280;3807;49.030;8.714;2023-07-28T04:59:39;98627.13;;;20.33;66.33
7532;BME280;3807;49.030;8.714;2023-07-28T05:02:05;98624.94;;;20.38;66.11
7532;BME280;3807;49.030;8.714;2023-07-28T05:04:31;98631.19;;;20.35;66.37
7532;BME280;3807;49.030;8.714;2023-07-28T05:06:56;98631.38;;;20.43;66.00
7532;BME280;3807;49.030;8.714;2023-07-28T05:09:21;98633.00;;;20.44;65.82
7532;BME280;3807;49.030;8.714;2023-07-28T05:11:47;98639.38;;;20.40;66.53
7532;BME280;3807;49.030;8.714;2023-07-28T05:14:12;98635.81;;;20.32;66.51
7532;BME280;3807;49.030;8.714;2023-07-28T05:16:37;98638.53;;;20.30;66.49
7532;BME280;3807;49.030;8.714;2023-07-28T05:19:06;98639.91;;;20.34;66.31
7532;BME280;3807;49.030;8.714;2023-07-28T05:21:31;98632.41;;;20.31;66.81
7532;BME280;3807;49.030;8.714;2023-07-28T05:23:57;98628.19;;;20.30;66.65
7532;BME280;3807;49.030;8.714;2023-07-28T05:26:22;98632.31;;;20.42;66.22
7532;BME280;3807;49.030;8.714;2023-07-28T05:28:47;98638.38;;;20.32;66.66
7532;BME280;3807;49.030;8.714;2023-07-28T05:31:12;98640.16;;;20.31;66.72
7532;BME280;3807;49.030;8.714;2023-07-28T05:33:40;98647.41;;;20.37;66.44
7532;BME280;3807;49.030;8.714;2023-07-28T05:36:05;98651.87;;;20.35;66.64
7532;BME280;3807;49.030;8.714;2023-07-28T05:38:31;98649.72;;;20.40;66.37
7532;BME280;3807;49.030;8.714;2023-07-28T05:41:00;98645.47;;;20.30;66.96
7532;BME280;3807;49.030;8.714;2023-07-28T05:43:27;98643.75;;;20.40;66.67
7532;BME280;3807;49.030;8.714;2023-07-28T05:45:52;98657.91;;;20.45;66.73
7532;BME280;3807;49.030;8.714;2023-07-28T05:48:18;98651.37;;;20.41;67.07
7532;BME280;3807;49.030;8.714;2023-07-28T05:50:43;98657.91;;;20.45;66.94
7532;BME280;3807;49.030;8.714;2023-07-28T05:53:08;98667.69;;;20.42;66.99
7532;BME280;3807;49.030;8.714;2023-07-28T05:55:34;98653.28;;;20.49;66.75
7532;BME280;3807;49.030;8.714;2023-07-28T05:57:59;98660.75;;;20.42;67.11
7532;BME280;3807;49.030;8.714;2023-07-28T06:00:25;98655.41;;;20.34;67.59
7532;BME280;3807;49.030;8.714;2023-07-28T06:02:50;98668.50;;;20.33;67.72
7532;BME280;3807;49.030;8.714;2023-07-28T06:05:16;98661.97;;;20.38;67.54
7532;BME280;3807;49.030;8.714;2023-07-28T06:07:41;98665.06;;;20.32;67.46
7532;BME280;3807;49.030;8.714;2023-07-28T06:10:07;98670.94;;;20.34;68.07
7532;BME280;3807;49.030;8.714;2023-07-28T06:12:32;98670.06;;;20.24;67.99
7532;BME280;3807;49.030;8.714;2023-07-28T06:14:58;98671.28;;;20.20;68.23
7532;BME280;3807;49.030;8.714;2023-07-28T06:17:23;98669.81;;;20.27;67.86
7532;BME280;3807;49.030;8.714;2023-07-28T06:19:49;98676.25;;;20.33;67.73
7532;BME280;3807;49.030;8.714;2023-07-28T06:22:14;98671.62;;;20.36;67.76
7532;BME280;3807;49.030;8.714;2023-07-28T06:24:40;98673.53;;;20.34;67.98
7532;BME280;3807;49.030;8.714;2023-07-28T06:27:05;98672.81;;;20.32;67.89
7532;BME280;3807;49.030;8.714;2023-07-28T06:29:33;98684.38;;;20.28;68.23
7532;BME280;3807;49.030;8.714;2023-07-28T06:31:59;98679.34;;;20.27;69.38
7532;BME280;3807;49.030;8.714;2023-07-28T06:34:24;98678.84;;;20.33;68.27
7532;BME280;3807;49.030;8.714;2023-07-28T06:36:49;98682.34;;;20.32;68.44
7532;BME280;3807;49.030;8.714;2023-07-28T06:39:15;98673.34;;;20.26;69.38
7532;BME280;3807;49.030;8.714;2023-07-28T06:41:40;98676.56;;;20.18;68.76
7532;BME280;3807;49.030;8.714;2023-07-28T06:44:05;98681.22;;;20.25;69.07
7532;BME280;3807;49.030;8.714;2023-07-28T06:46:32;98677.66;;;20.16;69.50
7532;BME280;3807;49.030;8.714;2023-07-28T06:48:57;98685.72;;;20.22;68.94
7532;BME280;3807;49.030;8.714;2023-07-28T06:51:22;98692.34;;;20.15;69.94
7532;BME280;3807;49.030;8.714;2023-07-28T06:53:48;98694.97;;;20.04;71.21
7532;BME280;3807;49.030;8.714;2023-07-28T06:56:13;98698.28;;;20.06;71.01
7532;BME280;3807;49.030;8.714;2023-07-28T06:58:38;98695.78;;;20.26;70.31
7532;BME280;3807;49.030;8.714;2023-07-28T07:01:04;98709.00;;;20.02;71.77
7532;BME280;3807;49.030;8.714;2023-07-28T07:03:29;98703.44;;;20.27;69.72
7532;BME280;3807;49.030;8.714;2023-07-28T07:05:54;98692.28;;;20.27;69.79
7532;BME280;3807;49.030;8.714;2023-07-28T07:08:20;98698.69;;;20.32;69.71
7532;BME280;3807;49.030;8.714;2023-07-28T07:10:49;98697.37;;;20.17;69.97
7532;BME280;3807;49.030;8.714;2023-07-28T07:13:17;98702.88;;;20.23;70.01
7532;BME280;3807;49.030;8.714;2023-07-28T07:15:43;98705.69;;;20.20;70.12
7532;BME280;3807;49.030;8.714;2023-07-28T07:18:08;98706.06;;;20.37;69.42
7532;BME280;3807;49.030;8.714;2023-07-28T07:20:36;98712.22;;;20.45;69.12
7532;BME280;3807;49.030;8.714;2023-07-28T07:23:02;98707.94;;;20.35;72.04
7532;BME280;3807;49.030;8.714;2023-07-28T07:25:27;98720.78;;;20.36;70.29
7532;BME280;3807;49.030;8.714;2023-07-28T07:27:52;98716.72;;;20.43;70.36
7532;BME280;3807;49.030;8.714;2023-07-28T07:30:18;98718.34;;;20.44;70.50
7532;BME280;3807;49.030;8.714;2023-07-28T07:32:43;98725.72;;;20.49;70.29
7532;BME280;3807;49.030;8.714;2023-07-28T07:35:09;98731.16;;;20.46;69.28
7532;BME280;3807;49.030;8.714;2023-07-28T07:37:34;98733.72;;;20.46;70.43
7532;BME280;3807;49.030;8.714;2023-07-28T07:39:59;98734.06;;;20.53;69.75
7532;BME280;3807;49.030;8.714;2023-07-28T07:42:27;98736.56;;;20.54;69.05
7532;BME280;3807;49.030;8.714;2023-07-28T07:44:52;98735.91;;;20.62;68.75
7532;BME280;3807;49.030;8.714;2023-07-28T07:47:18;98741.59;;;20.56;68.81
7532;BME280;3807;49.030;8.714;2023-07-28T07:49:43;98742.28;;;20.58;69.54
7532;BME280;3807;49.030;8.714;2023-07-28T07:52:09;98750.06;;;20.67;69.04
7532;BME280;3807;49.030;8.714;2023-07-28T07:54:35;98743.00;;;20.69;68.83
7532;BME280;3807;49.030;8.714;2023-07-28T07:57:00;98751.03;;;20.66;69.04
7532;BME280;3807;49.030;8.714;2023-07-28T07:59:25;98737.09;;;20.58;70.43
7532;BME280;3807;49.030;8.714;2023-07-28T08:01:53;98744.06;;;20.57;73.65
7532;BME280;3807;49.030;8.714;2023-07-28T08:04:19;98751.72;;;20.68;68.99
7532;BME280;3807;49.030;8.714;2023-07-28T08:06:44;98755.81;;;20.71;69.48
7532;BME280;3807;49.030;8.714;2023-07-28T08:09:09;98756.38;;;20.75;68.76
7532;BME280;3807;49.030;8.714;2023-07-28T08:11:35;98755.28;;;20.77;68.73
7532;BME280;3807;49.030;8.714;2023-07-28T08:14:00;98767.00;;;20.72;69.06
7532;BME280;3807;49.030;8.714;2023-07-28T08:16:25;98764.16;;;20.84;69.64
7532;BME280;3807;49.030;8.714;2023-07-28T08:18:51;98773.72;;;20.84;68.91
7532;BME280;3807;49.030;8.714;2023-07-28T08:21:16;98774.41;;;20.86;69.90
7532;BME280;3807;49.030;8.714;2023-07-28T08:23:41;98773.44;;;20.87;71.70
7532;BME280;3807;49.030;8.714;2023-07-28T08:26:07;98777.28;;;20.62;75.83
7532;BME280;3807;49.030;8.714;2023-07-28T08:28:32;98777.72;;;20.67;74.16
7532;BME280;3807;49.030;8.714;2023-07-28T08:30:58;98775.22;;;20.86;71.11
7532;BME280;3807;49.030;8.714;2023-07-28T08:33:24;98784.22;;;20.82;75.51
7532;BME280;3807;49.030;8.714;2023-07-28T08:35:49;98780.16;;;20.89;75.80
7532;BME280;3807;49.030;8.714;2023-07-28T08:38:15;98781.72;;;20.81;74.89
7532;BME280;3807;49.030;8.714;2023-07-28T08:40:40;98779.69;;;20.84;76.54
7532;BME280;3807;49.030;8.714;2023-07-28T08:43:06;98780.09;;;20.80;76.43
7532;BME280;3807;49.030;8.714;2023-07-28T08:45:31;98779.53;;;20.76;77.93
7532;BME280;3807;49.030;8.714;2023-07-28T08:47:56;98775.91;;;20.88;76.69
7532;BME280;3807;49.030;8.714;2023-07-28T08:50:22;98776.56;;;20.81;77.98
7532;BME280;3807;49.030;8.714;2023-07-28T08:52:48;98775.00;;;20.99;76.90
7532;BME280;3807;49.030;8.714;2023-07-28T08:55:15;98773.41;;;21.08;75.86
7532;BME280;3807;49.030;8.714;2023-07-28T08:57:41;98783.75;;;21.08;77.24
7532;BME280;3807;49.030;8.714;2023-07-28T09:00:11;98776.06;;;21.27;76.61
7532;BME280;3807;49.030;8.714;2023-07-28T09:02:39;98787.50;;;21.25;76.03
7532;BME280;3807;49.030;8.714;2023-07-28T09:05:05;98779.63;;;21.36;76.42
7532;BME280;3807;49.030;8.714;2023-07-28T09:07:37;98786.44;;;21.37;75.77
7532;BME280;3807;49.030;8.714;2023-07-28T09:10:03;98787.31;;;21.57;73.88
7532;BME280;3807;49.030;8.714;2023-07-28T09:12:32;98791.56;;;21.68;74.50
7532;BME280;3807;49.030;8.714;2023-07-28T09:14:58;98791.84;;;21.74;73.94
7532;BME280;3807;49.030;8.714;2023-07-28T09:17:23;98793.06;;;21.70;73.97
7532;BME280;3807;49.030;8.714;2023-07-28T09:19:53;98789.37;;;21.73;73.64
7532;BME280;3807;49.030;8.714;2023-07-28T09:22:19;98786.66;;;21.74;75.10
7532;BME280;3807;49.030;8.714;2023-07-28T09:24:46;98787.69;;;21.43;76.21
7532;BME280;3807;49.030;8.714;2023-07-28T09:27:26;98793.97;;;21.50;75.49
7532;BME280;3807;49.030;8.714;2023-07-28T09:29:52;98791.13;;;21.53;75.87
7532;BME280;3807;49.030;8.714;2023-07-28T09:32:30;98790.56;;;21.49;75.89
7532;BME280;3807;49.030;8.714;2023-07-28T09:35:09;98786.22;;;21.50;76.00
7532;BME280;3807;49.030;8.714;2023-07-28T09:37:42;98797.13;;;21.53;75.70
7532;BME280;3807;49.030;8.714;2023-07-28T09:40:13;98800.69;;;21.72;76.37
7532;BME280;3807;49.030;8.714;2023-07-28T09:45:06;98793.19;;;21.69;75.64
7532;BME280;3807;49.030;8.714;2023-07-28T09:47:34;98792.66;;;21.84;75.25
7532;BME280;3807;49.030;8.714;2023-07-28T09:50:03;98791.69;;;21.85;74.72
7532;BME280;3807;49.030;8.714;2023-07-28T09:52:33;98793.22;;;21.98;75.33
7532;BME280;3807;49.030;8.714;2023-07-28T09:54:59;98791.97;;;22.02;73.73
7532;BME280;3807;49.030;8.714;2023-07-28T09:57:26;98801.41;;;21.93;74.82
7532;BME280;3807;49.030;8.714;2023-07-28T09:59:54;98799.22;;;21.98;74.55
7532;BME280;3807;49.030;8.714;2023-07-28T10:02:20;98790.06;;;22.23;74.35
7532;BME280;3807;49.030;8.714;2023-07-28T10:04:46;98796.22;;;22.22;73.96
7532;BME280;3807;49.030;8.714;2023-07-28T10:07:12;98796.47;;;22.09;73.36
7532;BME280;3807;49.030;8.714;2023-07-28T10:09:38;98801.16;;;22.16;73.67
7532;BME280;3807;49.030;8.714;2023-07-28T10:12:04;98803.31;;;22.20;73.71
7532;BME280;3807;49.030;8.714;2023-07-28T10:14:34;98799.75;;;22.11;74.25
7532;BME280;3807;49.030;8.714;2023-07-28T10:17:00;98807.53;;;22.11;74.96
7532;BME280;3807;49.030;8.714;2023-07-28T10:19:27;98810.41;;;21.99;74.79
7532;BME280;3807;49.030;8.714;2023-07-28T10:22:22;98810.53;;;22.07;74.02
7532;BME280;3807;49.030;8.714;2023-07-28T10:24:55;98816.94;;;22.12;74.08
7532;BME280;3807;49.030;8.714;2023-07-28T10:30:00;98812.16;;;21.88;75.06
7532;BME280;3807;49.030;8.714;2023-07-28T10:32:27;98809.97;;;22.03;75.15
7532;BME280;3807;49.030;8.714;2023-07-28T10:35:06;98809.59;;;22.27;73.63
7532;BME280;3807;49.030;8.714;2023-07-28T10:37:32;98812.22;;;22.18;73.31
7532;BME280;3807;49.030;8.714;2023-07-28T10:40:37;98808.12;;;22.25;73.45
7532;BME280;3807;49.030;8.714;2023-07-28T10:43:04;98822.44;;;22.19;73.49
7532;BME280;3807;49.030;8.714;2023-07-28T10:45:32;98816.56;;;22.17;73.58
7532;BME280;3807;49.030;8.714;2023-07-28T10:47:58;98822.94;;;22.13;73.84
7532;BME280;3807;49.030;8.714;2023-07-28T10:50:30;98817.25;;;22.29;73.22
7532;BME280;3807;49.030;8.714;2023-07-28T10:52:56;98817.09;;;22.21;73.20
7532;BME280;3807;49.030;8.714;2023-07-28T10:55:23;98815.19;;;22.32;73.10
7532;BME280;3807;49.030;8.714;2023-07-28T10:57:50;98824.34;;;22.46;73.46
7532;BME280;3807;49.030;8.714;2023-07-28T11:00:18;98825.56;;;22.42;72.78
7532;BME280;3807;49.030;8.714;2023-07-28T11:02:53;98830.59;;;22.53;72.11
7532;BME280;3807;49.030;8.714;2023-07-28T11:05:22;98828.91;;;22.72;71.22
7532;BME280;3807;49.030;8.714;2023-07-28T11:07:48;98823.00;;;22.79;71.25
7532;BME280;3807;49.030;8.714;2023-07-28T11:10:14;98816.22;;;22.59;72.09
7532;BME280;3807;49.030;8.714;2023-07-28T11:12:44;98817.19;;;22.68;71.45
7532;BME280;3807;49.030;8.714;2023-07-28T11:15:11;98814.28;;;22.80;71.01
7532;BME280;3807;49.030;8.714;2023-07-28T11:17:41;98818.22;;;22.85;70.89
7532;BME280;3807;49.030;8.714;2023-07-28T11:20:24;98820.00;;;22.84;70.55
7532;BME280;3807;49.030;8.714;2023-07-28T11:22:54;98824.78;;;22.89;71.00
7532;BME280;3807;49.030;8.714;2023-07-28T11:25:21;98818.34;;;22.83;71.33
7532;BME280;3807;49.030;8.714;2023-07-28T11:27:47;98813.63;;;22.69;71.76
7532;BME280;3807;49.030;8.714;2023-07-28T11:30:14;98813.06;;;22.75;71.81
7532;BME280;3807;49.030;8.714;2023-07-28T11:32:42;98807.25;;;22.91;71.46
7532;BME280;3807;49.030;8.714;2023-07-28T11:35:10;98812.59;;;22.89;70.77
7532;BME280;3807;49.030;8.714;2023-07-28T11:37:37;98813.16;;;22.83;71.45
7532;BME280;3807;49.030;8.714;2023-07-28T11:40:04;98822.34;;;22.77;71.89
7532;BME280;3807;49.030;8.714;2023-07-28T11:42:37;98813.84;;;22.95;71.29
7532;BME280;3807;49.030;8.714;2023-07-28T11:45:03;98821.13;;;23.19;71.57
7532;BME280;3807;49.030;8.714;2023-07-28T11:47:29;98822.59;;;23.21;71.10
7532;BME280;3807;49.030;8.714;2023-07-28T11:49:55;98817.66;;;23.00;71.00
7532;BME280;3807;49.030;8.714;2023-07-28T11:52:23;98825.88;;;22.86;71.91
7532;BME280;3807;49.030;8.714;2023-07-28T11:54:51;98816.69;;;22.92;72.60
7532;BME280;3807;49.030;8.714;2023-07-28T11:57:17;98824.66;;;22.80;72.21
7532;BME280;3807;49.030;8.714;2023-07-28T11:59:43;98828.03;;;22.91;71.86
7532;BME280;3807;49.030;8.714;2023-07-28T12:02:09;98829.09;;;23.08;71.52
7532;BME280;3807;49.030;8.714;2023-07-28T12:04:36;98824.72;;;23.08;71.07
7532;BME280;3807;49.030;8.714;2023-07-28T12:07:16;98824.72;;;23.08;70.76
7532;BME280;3807;49.030;8.714;2023-07-28T12:12:17;98830.53;;;22.92;72.93
7532;BME280;3807;49.030;8.714;2023-07-28T12:14:43;98828.47;;;22.76;73.51
7532;BME280;3807;49.030;8.714;2023-07-28T12:17:15;98827.19;;;23.10;71.49
7532;BME280;3807;49.030;8.714;2023-07-28T12:20:05;98844.59;;;22.99;74.89
7532;BME280;3807;49.030;8.714;2023-07-28T12:22:43;98830.53;;;22.92;73.72
7532;BME280;3807;49.030;8.714;2023-07-28T12:25:10;98830.69;;;23.18;71.69
7532;BME280;3807;49.030;8.714;2023-07-28T12:27:36;98833.25;;;23.28;70.60
7532;BME280;3807;49.030;8.714;2023-07-28T12:30:02;98831.72;;;23.35;71.89
7532;BME280;3807;49.030;8.714;2023-07-28T12:32:28;98836.19;;;23.43;73.29
7532;BME280;3807;49.030;8.714;2023-07-28T12:34:53;98832.03;;;23.50;70.59
7532;BME280;3807;49.030;8.714;2023-07-28T12:37:19;98832.59;;;23.53;70.91
7532;BME280;3807;49.030;8.714;2023-07-28T12:39:45;98847.22;;;23.54;73.76
7532;BME280;3807;49.030;8.714;2023-07-28T12:42:11;98832.94;;;23.59;71.13
7532;BME280;3807;49.030;8.714;2023-07-28T12:44:37;98844.69;;;23.63;71.30
7532;BME280;3807;49.030;8.714;2023-07-28T12:47:03;98843.06;;;23.62;69.76
7532;BME280;3807;49.030;8.714;2023-07-28T12:49:29;98841.13;;;23.64;73.06
7532;BME280;3807;49.030;8.714;2023-07-28T12:51:59;98850.97;;;23.70;74.40
7532;BME280;3807;49.030;8.714;2023-07-28T12:54:25;98849.87;;;23.63;69.99
7532;BME280;3807;49.030;8.714;2023-07-28T12:56:51;98851.31;;;23.57;69.86
7532;BME280;3807;49.030;8.714;2023-07-28T12:59:17;98846.31;;;23.64;72.08
7532;BME280;3807;49.030;8.714;2023-07-28T13:01:42;98853.81;;;23.67;71.15
7532;BME280;3807;49.030;8.714;2023-07-28T13:04:07;98857.16;;;23.87;72.33
7532;BME280;3807;49.030;8.714;2023-07-28T13:06:33;98860.56;;;23.69;70.40
7532;BME280;3807;49.030;8.714;2023-07-28T13:08:58;98857.22;;;23.77;72.05
7532;BME280;3807;49.030;8.714;2023-07-28T13:11:24;98856.06;;;23.62;70.15
7532;BME280;3807;49.030;8.714;2023-07-28T13:13:49;98862.06;;;23.62;73.29
7532;BME280;3807;49.030;8.714;2023-07-28T13:16:14;98856.53;;;23.20;73.95
7532;BME280;3807;49.030;8.714;2023-07-28T13:18:41;98859.28;;;23.46;70.97
7532;BME280;3807;49.030;8.714;2023-07-28T13:21:07;98860.94;;;23.47;70.58
7532;BME280;3807;49.030;8.714;2023-07-28T13:23:33;98857.50;;;23.46;70.59
7532;BME280;3807;49.030;8.714;2023-07-28T13:25:58;98867.19;;;23.54;70.33
7532;BME280;3807;49.030;8.714;2023-07-28T13:28:24;98862.22;;;23.61;69.51
7532;BME280;3807;49.030;8.714;2023-07-28T13:30:51;98866.66;;;23.50;70.92